Airport Name : Calgary Intl

Other Name : Calgary Intl

ICAO : CYYC

IATA : YYC

FAA :

Latitude : 51.113888

Longitude : -114.020278

Country : Canada

Local Date and Time : 4/25/2018 10:05:00 PM

 

TAF (Terminal Aerodrome Forecast)

TAF CYYC 260238Z 2603/2624 12010KT P6SM FEW220 BECMG 2604/2606 22008KT FM261200 26006KT P6SM SKC FM261800 09008KT P6SM SKC RMK NXT FCST BY 260600Z

 

METAR (METeorological Aerodrome Report)

CYYC 260300Z 15008KT 15SM FEW220 10/M02 A3012 RMK CI2 SLP227 DENSITY ALT 3700FT

CYYC 260200Z 14009KT 30SM FEW220 12/M03 A3012 RMK CI1 SLP223 DENSITY ALT 3900FT

CYYC 260100Z 11005KT 15SM FEW300 14/M03 A3013 RMK CI1 CI TR SLP224 DENSITY ALT 4100FT